sensor_id;sensor_type;location;lat;lon;timestamp;P1;durP1;ratioP1;P2;durP2;ratioP2
29984;SDS011;17387;42.690;23.328;2024-03-08T00:00:16;5.25;;;2.22;;
29984;SDS011;17387;42.690;23.328;2024-03-08T00:02:53;5.43;;;2.97;;
29984;SDS011;17387;42.690;23.328;2024-03-08T00:05:26;3.15;;;2.30;;
29984;SDS011;17387;42.690;23.328;2024-03-08T00:07:51;4.55;;;2.67;;
29984;SDS011;17387;42.690;23.328;2024-03-08T00:10:17;3.90;;;2.53;;
29984;SDS011;17387;42.690;23.328;2024-03-08T00:12:43;3.60;;;2.42;;
29984;SDS011;17387;42.690;23.328;2024-03-08T00:15:17;4.10;;;2.35;;
29984;SDS011;17387;42.690;23.328;2024-03-08T00:17:53;4.38;;;3.10;;
29984;SDS011;17387;42.690;23.328;2024-03-08T00:20:18;4.32;;;2.85;;
29984;SDS011;17387;42.690;23.328;2024-03-08T00:22:44;3.65;;;2.58;;
29984;SDS011;17387;42.690;23.328;2024-03-08T00:25:09;4.43;;;2.53;;
29984;SDS011;17387;42.690;23.328;2024-03-08T00:27:35;4.43;;;2.60;;
29984;SDS011;17387;42.690;23.328;2024-03-08T00:30:01;4.07;;;2.70;;
29984;SDS011;17387;42.690;23.328;2024-03-08T00:32:26;3.22;;;2.50;;
29984;SDS011;17387;42.690;23.328;2024-03-08T00:35:00;2.88;;;2.22;;
29984;SDS011;17387;42.690;23.328;2024-03-08T00:37:26;2.70;;;1.80;;
29984;SDS011;17387;42.690;23.328;2024-03-08T00:39:59;2.75;;;2.20;;
29984;SDS011;17387;42.690;23.328;2024-03-08T00:42:34;2.88;;;1.70;;
29984;SDS011;17387;42.690;23.328;2024-03-08T00:45:00;2.85;;;1.90;;
29984;SDS011;17387;42.690;23.328;2024-03-08T00:47:28;2.47;;;1.83;;
29984;SDS011;17387;42.690;23.328;2024-03-08T00:49:57;2.65;;;2.17;;
29984;SDS011;17387;42.690;23.328;2024-03-08T00:52:31;4.35;;;2.85;;
29984;SDS011;17387;42.690;23.328;2024-03-08T00:54:58;4.57;;;3.00;;
29984;SDS011;17387;42.690;23.328;2024-03-08T00:57:29;4.55;;;2.92;;
29984;SDS011;17387;42.690;23.328;2024-03-08T00:59:55;4.38;;;3.50;;
29984;SDS011;17387;42.690;23.328;2024-03-08T01:02:23;6.80;;;3.50;;
29984;SDS011;17387;42.690;23.328;2024-03-08T01:04:51;4.80;;;3.08;;
29984;SDS011;17387;42.690;23.328;2024-03-08T01:07:17;5.07;;;2.97;;
29984;SDS011;17387;42.690;23.328;2024-03-08T01:09:42;5.07;;;3.03;;
29984;SDS011;17387;42.690;23.328;2024-03-08T01:12:07;3.75;;;2.58;;
29984;SDS011;17387;42.690;23.328;2024-03-08T01:14:33;3.13;;;2.40;;
29984;SDS011;17387;42.690;23.328;2024-03-08T01:16:58;3.95;;;2.55;;
29984;SDS011;17387;42.690;23.328;2024-03-08T01:19:29;3.40;;;2.67;;
29984;SDS011;17387;42.690;23.328;2024-03-08T01:21:58;4.00;;;2.50;;
29984;SDS011;17387;42.690;23.328;2024-03-08T01:24:23;3.20;;;2.25;;
29984;SDS011;17387;42.690;23.328;2024-03-08T01:26:48;4.40;;;2.47;;
29984;SDS011;17387;42.690;23.328;2024-03-08T01:29:14;3.60;;;2.20;;
29984;SDS011;17387;42.690;23.328;2024-03-08T01:31:39;3.95;;;2.45;;
29984;SDS011;17387;42.690;23.328;2024-03-08T01:34:07;3.40;;;2.58;;
29984;SDS011;17387;42.690;23.328;2024-03-08T01:36:33;4.45;;;2.30;;
29984;SDS011;17387;42.690;23.328;2024-03-08T01:39:00;2.70;;;2.35;;
29984;SDS011;17387;42.690;23.328;2024-03-08T01:41:32;2.65;;;2.30;;
29984;SDS011;17387;42.690;23.328;2024-03-08T01:44:00;3.28;;;2.40;;
29984;SDS011;17387;42.690;23.328;2024-03-08T01:46:31;2.70;;;2.25;;
29984;SDS011;17387;42.690;23.328;2024-03-08T01:49:15;3.17;;;2.50;;
29984;SDS011;17387;42.690;23.328;2024-03-08T01:51:48;2.85;;;2.20;;
29984;SDS011;17387;42.690;23.328;2024-03-08T01:54:14;2.80;;;2.22;;
29984;SDS011;17387;42.690;23.328;2024-03-08T01:56:43;3.10;;;2.30;;
29984;SDS011;17387;42.690;23.328;2024-03-08T01:59:11;3.50;;;2.50;;
29984;SDS011;17387;42.690;23.328;2024-03-08T02:01:39;3.80;;;2.47;;
29984;SDS011;17387;42.690;23.328;2024-03-08T02:04:11;4.32;;;2.35;;
29984;SDS011;17387;42.690;23.328;2024-03-08T02:06:42;3.38;;;2.53;;
29984;SDS011;17387;42.690;23.328;2024-03-08T02:09:07;3.25;;;2.58;;
29984;SDS011;17387;42.690;23.328;2024-03-08T02:11:35;3.88;;;2.60;;
29984;SDS011;17387;42.690;23.328;2024-03-08T02:14:03;5.03;;;2.55;;
29984;SDS011;17387;42.690;23.328;2024-03-08T02:16:33;4.05;;;2.35;;
29984;SDS011;17387;42.690;23.328;2024-03-08T02:19:07;3.03;;;2.45;;
29984;SDS011;17387;42.690;23.328;2024-03-08T02:21:43;2.92;;;2.42;;
29984;SDS011;17387;42.690;23.328;2024-03-08T02:24:12;3.47;;;2.50;;
29984;SDS011;17387;42.690;23.328;2024-03-08T02:26:39;3.85;;;2.58;;
29984;SDS011;17387;42.690;23.328;2024-03-08T02:29:06;3.45;;;2.45;;
29984;SDS011;17387;42.690;23.328;2024-03-08T02:31:42;2.22;;;1.15;;
29984;SDS011;17387;42.690;23.328;2024-03-08T02:34:10;1.98;;;1.23;;
29984;SDS011;17387;42.690;23.328;2024-03-08T02:36:38;2.10;;;0.80;;
29984;SDS011;17387;42.690;23.328;2024-03-08T02:39:03;1.80;;;1.40;;
29984;SDS011;17387;42.690;23.328;2024-03-08T02:41:35;1.48;;;0.95;;
29984;SDS011;17387;42.690;23.328;2024-03-08T02:44:13;1.60;;;1.02;;
29984;SDS011;17387;42.690;23.328;2024-03-08T02:46:40;2.75;;;1.30;;
29984;SDS011;17387;42.690;23.328;2024-03-08T02:49:07;1.33;;;1.10;;
29984;SDS011;17387;42.690;23.328;2024-03-08T02:51:38;1.80;;;0.90;;
29984;SDS011;17387;42.690;23.328;2024-03-08T02:54:06;1.90;;;1.23;;
29984;SDS011;17387;42.690;23.328;2024-03-08T02:56:46;1.73;;;1.13;;
29984;SDS011;17387;42.690;23.328;2024-03-08T02:59:13;2.05;;;1.50;;
29984;SDS011;17387;42.690;23.328;2024-03-08T03:01:40;2.67;;;1.30;;
29984;SDS011;17387;42.690;23.328;2024-03-08T03:04:08;1.52;;;1.08;;
29984;SDS011;17387;42.690;23.328;2024-03-08T03:06:37;1.40;;;1.10;;
29984;SDS011;17387;42.690;23.328;2024-03-08T03:09:02;1.15;;;0.98;;
29984;SDS011;17387;42.690;23.328;2024-03-08T03:11:31;1.65;;;0.80;;
29984;SDS011;17387;42.690;23.328;2024-03-08T03:13:56;1.75;;;0.95;;
29984;SDS011;17387;42.690;23.328;2024-03-08T03:16:25;1.88;;;1.05;;
29984;SDS011;17387;42.690;23.328;2024-03-08T03:18:50;2.22;;;0.90;;
29984;SDS011;17387;42.690;23.328;2024-03-08T03:21:15;1.10;;;1.00;;
29984;SDS011;17387;42.690;23.328;2024-03-08T03:23:41;2.58;;;1.70;;
29984;SDS011;17387;42.690;23.328;2024-03-08T03:26:07;2.00;;;1.83;;
29984;SDS011;17387;42.690;23.328;2024-03-08T03:28:33;3.13;;;2.22;;
29984;SDS011;17387;42.690;23.328;2024-03-08T03:30:58;3.20;;;2.65;;
29984;SDS011;17387;42.690;23.328;2024-03-08T03:33:26;3.47;;;3.17;;
29984;SDS011;17387;42.690;23.328;2024-03-08T03:35:52;6.05;;;2.67;;
29984;SDS011;17387;42.690;23.328;2024-03-08T03:38:17;4.03;;;3.45;;
29984;SDS011;17387;42.690;23.328;2024-03-08T03:40:48;3.80;;;3.40;;
29984;SDS011;17387;42.690;23.328;2024-03-08T03:43:17;4.05;;;3.08;;
29984;SDS011;17387;42.690;23.328;2024-03-08T03:45:42;4.82;;;2.75;;
29984;SDS011;17387;42.690;23.328;2024-03-08T03:48:08;3.33;;;2.40;;
29984;SDS011;17387;42.690;23.328;2024-03-08T03:50:36;2.08;;;1.65;;
29984;SDS011;17387;42.690;23.328;2024-03-08T03:53:04;2.67;;;1.90;;
29984;SDS011;17387;42.690;23.328;2024-03-08T03:55:33;2.35;;;1.77;;
29984;SDS011;17387;42.690;23.328;2024-03-08T03:57:58;1.95;;;1.55;;
29984;SDS011;17387;42.690;23.328;2024-03-08T04:00:26;1.95;;;1.50;;
29984;SDS011;17387;42.690;23.328;2024-03-08T04:02:52;2.60;;;1.42;;
29984;SDS011;17387;42.690;23.328;2024-03-08T04:05:17;1.73;;;1.15;;
29984;SDS011;17387;42.690;23.328;2024-03-08T04:07:43;4.10;;;1.70;;
29984;SDS011;17387;42.690;23.328;2024-03-08T04:10:12;3.33;;;1.60;;
29984;SDS011;17387;42.690;23.328;2024-03-08T04:12:37;3.05;;;1.90;;
29984;SDS011;17387;42.690;23.328;2024-03-08T04:15:03;2.42;;;1.70;;
29984;SDS011;17387;42.690;23.328;2024-03-08T04:17:32;5.25;;;2.00;;
29984;SDS011;17387;42.690;23.328;2024-03-08T04:20:03;2.72;;;1.70;;
29984;SDS011;17387;42.690;23.328;2024-03-08T04:22:38;2.50;;;2.03;;
29984;SDS011;17387;42.690;23.328;2024-03-08T04:25:27;2.97;;;1.92;;
29984;SDS011;17387;42.690;23.328;2024-03-08T04:27:56;2.67;;;2.17;;
29984;SDS011;17387;42.690;23.328;2024-03-08T04:30:21;3.75;;;2.47;;
29984;SDS011;17387;42.690;23.328;2024-03-08T04:32:47;4.38;;;2.65;;
29984;SDS011;17387;42.690;23.328;2024-03-08T04:35:13;4.35;;;2.80;;
29984;SDS011;17387;42.690;23.328;2024-03-08T04:37:43;3.70;;;2.65;;
29984;SDS011;17387;42.690;23.328;2024-03-08T04:40:10;4.18;;;3.00;;
29984;SDS011;17387;42.690;23.328;2024-03-08T04:42:41;5.88;;;2.80;;
29984;SDS011;17387;42.690;23.328;2024-03-08T04:45:10;4.20;;;3.08;;
29984;SDS011;17387;42.690;23.328;2024-03-08T04:47:38;3.60;;;2.85;;
29984;SDS011;17387;42.690;23.328;2024-03-08T04:50:04;5.75;;;3.40;;
29984;SDS011;17387;42.690;23.328;2024-03-08T04:52:50;4.47;;;2.97;;
29984;SDS011;17387;42.690;23.328;2024-03-08T04:55:16;6.32;;;3.30;;
29984;SDS011;17387;42.690;23.328;2024-03-08T04:57:41;4.70;;;3.40;;
29984;SDS011;17387;42.690;23.328;2024-03-08T05:00:11;6.07;;;3.80;;
29984;SDS011;17387;42.690;23.328;2024-03-08T05:02:37;5.90;;;4.05;;
29984;SDS011;17387;42.690;23.328;2024-03-08T05:05:04;5.43;;;3.60;;
29984;SDS011;17387;42.690;23.328;2024-03-08T05:07:30;7.20;;;4.60;;
29984;SDS011;17387;42.690;23.328;2024-03-08T05:09:55;7.72;;;4.20;;
29984;SDS011;17387;42.690;23.328;2024-03-08T05:12:21;9.48;;;4.38;;
29984;SDS011;17387;42.690;23.328;2024-03-08T05:14:47;7.00;;;4.30;;
29984;SDS011;17387;42.690;23.328;2024-03-08T05:17:15;6.95;;;4.30;;
29984;SDS011;17387;42.690;23.328;2024-03-08T05:19:41;6.32;;;4.50;;
29984;SDS011;17387;42.690;23.328;2024-03-08T05:22:06;8.07;;;4.57;;
29984;SDS011;17387;42.690;23.328;2024-03-08T05:24:32;8.63;;;5.15;;
29984;SDS011;17387;42.690;23.328;2024-03-08T05:27:00;7.53;;;4.72;;
29984;SDS011;17387;42.690;23.328;2024-03-08T05:29:25;7.38;;;5.10;;
29984;SDS011;17387;42.690;23.328;2024-03-08T05:31:51;7.88;;;4.80;;
29984;SDS011;17387;42.690;23.328;2024-03-08T05:34:20;10.05;;;5.60;;
29984;SDS011;17387;42.690;23.328;2024-03-08T05:36:46;8.27;;;5.60;;
29984;SDS011;17387;42.690;23.328;2024-03-08T05:39:12;7.78;;;5.00;;
29984;SDS011;17387;42.690;23.328;2024-03-08T05:41:41;10.75;;;5.60;;
29984;SDS011;17387;42.690;23.328;2024-03-08T05:44:06;8.48;;;5.43;;
29984;SDS011;17387;42.690;23.328;2024-03-08T05:46:32;8.07;;;5.15;;
29984;SDS011;17387;42.690;23.328;2024-03-08T05:48:57;8.40;;;5.60;;
29984;SDS011;17387;42.690;23.328;2024-03-08T05:51:30;9.10;;;5.65;;
29984;SDS011;17387;42.690;23.328;2024-03-08T05:53:58;11.32;;;6.05;;
29984;SDS011;17387;42.690;23.328;2024-03-08T05:56:29;12.15;;;5.80;;
29984;SDS011;17387;42.690;23.328;2024-03-08T05:58:54;10.75;;;6.13;;
29984;SDS011;17387;42.690;23.328;2024-03-08T06:01:19;9.90;;;6.07;;
29984;SDS011;17387;42.690;23.328;2024-03-08T06:03:44;10.95;;;6.22;;
29984;SDS011;17387;42.690;23.328;2024-03-08T06:06:13;9.63;;;6.40;;
29984;SDS011;17387;42.690;23.328;2024-03-08T06:08:38;12.70;;;7.25;;
29984;SDS011;17387;42.690;23.328;2024-03-08T06:11:05;11.38;;;7.05;;
29984;SDS011;17387;42.690;23.328;2024-03-08T06:13:33;10.77;;;7.07;;
29984;SDS011;17387;42.690;23.328;2024-03-08T06:15:59;12.63;;;6.50;;
29984;SDS011;17387;42.690;23.328;2024-03-08T06:20:55;11.27;;;6.43;;
29984;SDS011;17387;42.690;23.328;2024-03-08T06:26:09;10.13;;;6.40;;
29984;SDS011;17387;42.690;23.328;2024-03-08T06:28:37;11.27;;;6.18;;
29984;SDS011;17387;42.690;23.328;2024-03-08T06:31:03;10.77;;;5.82;;
29984;SDS011;17387;42.690;23.328;2024-03-08T06:33:28;10.55;;;6.97;;
29984;SDS011;17387;42.690;23.328;2024-03-08T06:36:01;11.50;;;6.43;;
29984;SDS011;17387;42.690;23.328;2024-03-08T06:38:29;9.25;;;6.00;;
29984;SDS011;17387;42.690;23.328;2024-03-08T06:40:55;10.48;;;6.03;;
29984;SDS011;17387;42.690;23.328;2024-03-08T06:43:21;10.77;;;6.10;;
29984;SDS011;17387;42.690;23.328;2024-03-08T06:45:46;10.23;;;5.90;;
29984;SDS011;17387;42.690;23.328;2024-03-08T06:48:15;13.18;;;6.32;;
29984;SDS011;17387;42.690;23.328;2024-03-08T06:50:43;9.30;;;6.80;;
29984;SDS011;17387;42.690;23.328;2024-03-08T06:53:10;11.10;;;6.53;;
29984;SDS011;17387;42.690;23.328;2024-03-08T06:55:42;9.73;;;6.28;;
29984;SDS011;17387;42.690;23.328;2024-03-08T06:58:12;17.10;;;7.18;;
29984;SDS011;17387;42.690;23.328;2024-03-08T07:00:39;9.63;;;6.65;;
29984;SDS011;17387;42.690;23.328;2024-03-08T07:03:08;11.10;;;6.78;;
29984;SDS011;17387;42.690;23.328;2024-03-08T07:05:40;11.85;;;6.70;;
29984;SDS011;17387;42.690;23.328;2024-03-08T07:08:05;10.57;;;6.65;;
29984;SDS011;17387;42.690;23.328;2024-03-08T07:10:31;12.65;;;6.90;;
29984;SDS011;17387;42.690;23.328;2024-03-08T07:12:59;10.65;;;6.07;;
29984;SDS011;17387;42.690;23.328;2024-03-08T07:15:48;10.82;;;5.93;;
29984;SDS011;17387;42.690;23.328;2024-03-08T07:18:33;9.52;;;6.00;;
29984;SDS011;17387;42.690;23.328;2024-03-08T07:21:01;8.35;;;6.03;;
29984;SDS011;17387;42.690;23.328;2024-03-08T07:23:27;8.73;;;5.70;;
29984;SDS011;17387;42.690;23.328;2024-03-08T07:26:11;9.15;;;6.13;;
29984;SDS011;17387;42.690;23.328;2024-03-08T07:28:40;9.13;;;5.88;;
29984;SDS011;17387;42.690;23.328;2024-03-08T07:31:07;9.85;;;6.43;;
29984;SDS011;17387;42.690;23.328;2024-03-08T07:33:52;12.27;;;6.78;;
29984;SDS011;17387;42.690;23.328;2024-03-08T07:36:24;13.07;;;6.22;;
29984;SDS011;17387;42.690;23.328;2024-03-08T07:38:51;11.25;;;6.68;;
29984;SDS011;17387;42.690;23.328;2024-03-08T07:41:17;10.68;;;7.25;;
29984;SDS011;17387;42.690;23.328;2024-03-08T07:43:46;9.70;;;6.40;;
29984;SDS011;17387;42.690;23.328;2024-03-08T07:46:15;12.10;;;6.97;;
29984;SDS011;17387;42.690;23.328;2024-03-08T07:48:43;10.95;;;7.15;;
29984;SDS011;17387;42.690;23.328;2024-03-08T07:51:10;12.35;;;7.53;;
29984;SDS011;17387;42.690;23.328;2024-03-08T07:56:39;12.95;;;7.93;;
29984;SDS011;17387;42.690;23.328;2024-03-08T07:59:05;11.50;;;7.65;;
29984;SDS011;17387;42.690;23.328;2024-03-08T08:01:31;12.45;;;7.15;;
29984;SDS011;17387;42.690;23.328;2024-03-08T08:03:58;8.45;;;5.88;;
29984;SDS011;17387;42.690;23.328;2024-03-08T08:06:25;10.90;;;6.43;;
29984;SDS011;17387;42.690;23.328;2024-03-08T08:08:53;10.18;;;6.50;;
29984;SDS011;17387;42.690;23.328;2024-03-08T08:11:19;12.27;;;6.95;;
29984;SDS011;17387;42.690;23.328;2024-03-08T08:13:45;11.32;;;6.18;;
29984;SDS011;17387;42.690;23.328;2024-03-08T08:16:13;8.40;;;5.35;;
29984;SDS011;17387;42.690;23.328;2024-03-08T08:18:41;7.97;;;5.60;;
29984;SDS011;17387;42.690;23.328;2024-03-08T08:21:07;6.15;;;4.60;;
29984;SDS011;17387;42.690;23.328;2024-03-08T08:23:35;11.93;;;4.53;;
29984;SDS011;17387;42.690;23.328;2024-03-08T08:26:03;8.70;;;5.53;;
29984;SDS011;17387;42.690;23.328;2024-03-08T08:28:29;8.15;;;5.90;;
29984;SDS011;17387;42.690;23.328;2024-03-08T08:30:55;8.93;;;5.82;;
29984;SDS011;17387;42.690;23.328;2024-03-08T08:33:24;12.20;;;6.82;;
29984;SDS011;17387;42.690;23.328;2024-03-08T08:35:53;13.02;;;8.30;;
29984;SDS011;17387;42.690;23.328;2024-03-08T08:38:27;9.40;;;6.35;;
29984;SDS011;17387;42.690;23.328;2024-03-08T08:40:52;8.32;;;5.70;;
29984;SDS011;17387;42.690;23.328;2024-03-08T08:43:18;12.35;;;6.38;;
29984;SDS011;17387;42.690;23.328;2024-03-08T08:45:44;7.30;;;5.03;;
29984;SDS011;17387;42.690;23.328;2024-03-08T08:48:15;7.60;;;4.38;;
29984;SDS011;17387;42.690;23.328;2024-03-08T08:50:41;9.65;;;5.28;;
29984;SDS011;17387;42.690;23.328;2024-03-08T08:53:06;5.65;;;4.05;;
29984;SDS011;17387;42.690;23.328;2024-03-08T08:55:32;7.18;;;4.85;;
29984;SDS011;17387;42.690;23.328;2024-03-08T08:58:03;6.35;;;4.75;;
29984;SDS011;17387;42.690;23.328;2024-03-08T09:00:42;13.45;;;7.85;;
29984;SDS011;17387;42.690;23.328;2024-03-08T09:03:09;9.85;;;6.50;;
29984;SDS011;17387;42.690;23.328;2024-03-08T09:05:38;9.40;;;5.72;;
29984;SDS011;17387;42.690;23.328;2024-03-08T09:08:03;8.02;;;4.25;;
29984;SDS011;17387;42.690;23.328;2024-03-08T09:10:29;6.78;;;4.32;;
29984;SDS011;17387;42.690;23.328;2024-03-08T09:12:59;7.18;;;4.50;;
29984;SDS011;17387;42.690;23.328;2024-03-08T09:15:24;6.60;;;4.63;;
29984;SDS011;17387;42.690;23.328;2024-03-08T09:17:55;8.27;;;4.88;;
29984;SDS011;17387;42.690;23.328;2024-03-08T09:26:29;13.13;;;7.35;;
29984;SDS011;17387;42.690;23.328;2024-03-08T09:28:58;7.35;;;4.88;;
29984;SDS011;17387;42.690;23.328;2024-03-08T09:31:26;6.10;;;3.58;;
29984;SDS011;17387;42.690;23.328;2024-03-08T09:33:55;10.52;;;6.55;;
29984;SDS011;17387;42.690;23.328;2024-03-08T09:36:32;7.90;;;6.13;;
29984;SDS011;17387;42.690;23.328;2024-03-08T09:39:09;7.57;;;4.32;;
29984;SDS011;17387;42.690;23.328;2024-03-08T09:41:35;9.02;;;4.35;;
29984;SDS011;17387;42.690;23.328;2024-03-08T09:53:29;5.55;;;3.88;;
29984;SDS011;17387;42.690;23.328;2024-03-08T09:56:05;8.43;;;4.55;;
29984;SDS011;17387;42.690;23.328;2024-03-08T09:58:34;7.82;;;4.70;;
29984;SDS011;17387;42.690;23.328;2024-03-08T10:01:19;4.30;;;3.35;;
29984;SDS011;17387;42.690;23.328;2024-03-08T10:03:47;5.90;;;4.05;;
29984;SDS011;17387;42.690;23.328;2024-03-08T10:06:15;6.05;;;4.07;;
29984;SDS011;17387;42.690;23.328;2024-03-08T10:08:41;4.75;;;3.22;;
29984;SDS011;17387;42.690;23.328;2024-03-08T10:11:06;4.35;;;3.08;;
29984;SDS011;17387;42.690;23.328;2024-03-08T10:13:36;8.30;;;2.95;;
29984;SDS011;17387;42.690;23.328;2024-03-08T10:24:24;8.50;;;3.60;;
29984;SDS011;17387;42.690;23.328;2024-03-08T10:26:53;3.45;;;2.85;;
29984;SDS011;17387;42.690;23.328;2024-03-08T10:29:24;4.47;;;2.80;;
29984;SDS011;17387;42.690;23.328;2024-03-08T10:31:49;4.90;;;3.10;;
29984;SDS011;17387;42.690;23.328;2024-03-08T10:34:17;7.30;;;2.90;;
29984;SDS011;17387;42.690;23.328;2024-03-08T10:36:42;7.93;;;4.70;;
29984;SDS011;17387;42.690;23.328;2024-03-08T10:39:34;5.70;;;3.10;;
29984;SDS011;17387;42.690;23.328;2024-03-08T10:42:06;5.60;;;3.17;;
29984;SDS011;17387;42.690;23.328;2024-03-08T10:44:53;4.55;;;2.92;;
29984;SDS011;17387;42.690;23.328;2024-03-08T10:47:29;4.28;;;2.90;;
29984;SDS011;17387;42.690;23.328;2024-03-08T10:50:01;11.55;;;4.95;;
29984;SDS011;17387;42.690;23.328;2024-03-08T10:52:29;3.47;;;2.63;;
29984;SDS011;17387;42.690;23.328;2024-03-08T10:54:54;2.50;;;2.10;;
29984;SDS011;17387;42.690;23.328;2024-03-08T10:57:21;2.25;;;2.05;;
29984;SDS011;17387;42.690;23.328;2024-03-08T11:00:09;3.83;;;2.80;;
29984;SDS011;17387;42.690;23.328;2024-03-08T11:02:56;2.72;;;2.00;;
29984;SDS011;17387;42.690;23.328;2024-03-08T11:05:39;4.35;;;2.75;;
29984;SDS011;17387;42.690;23.328;2024-03-08T11:10:52;5.22;;;3.55;;
29984;SDS011;17387;42.690;23.328;2024-03-08T11:13:40;5.75;;;2.60;;
29984;SDS011;17387;42.690;23.328;2024-03-08T11:16:12;2.60;;;1.90;;
29984;SDS011;17387;42.690;23.328;2024-03-08T11:18:45;3.63;;;2.53;;
29984;SDS011;17387;42.690;23.328;2024-03-08T11:24:20;2.75;;;1.98;;
29984;SDS011;17387;42.690;23.328;2024-03-08T11:26:49;3.85;;;2.20;;
29984;SDS011;17387;42.690;23.328;2024-03-08T11:34:35;3.25;;;2.10;;
29984;SDS011;17387;42.690;23.328;2024-03-08T11:37:11;3.25;;;2.28;;
29984;SDS011;17387;42.690;23.328;2024-03-08T11:39:38;3.13;;;2.00;;
29984;SDS011;17387;42.690;23.328;2024-03-08T11:42:03;9.48;;;3.92;;
29984;SDS011;17387;42.690;23.328;2024-03-08T11:44:32;3.35;;;2.70;;
29984;SDS011;17387;42.690;23.328;2024-03-08T11:46:58;3.13;;;1.90;;
29984;SDS011;17387;42.690;23.328;2024-03-08T11:49:26;4.03;;;2.97;;
29984;SDS011;17387;42.690;23.328;2024-03-08T11:51:52;2.30;;;1.40;;
29984;SDS011;17387;42.690;23.328;2024-03-08T11:54:24;2.75;;;1.90;;
29984;SDS011;17387;42.690;23.328;2024-03-08T11:56:51;3.58;;;2.20;;
29984;SDS011;17387;42.690;23.328;2024-03-08T11:59:36;3.42;;;2.40;;
29984;SDS011;17387;42.690;23.328;2024-03-08T12:02:24;5.13;;;2.80;;
29984;SDS011;17387;42.690;23.328;2024-03-08T12:04:56;4.25;;;2.22;;
29984;SDS011;17387;42.690;23.328;2024-03-08T12:07:25;3.22;;;1.90;;
29984;SDS011;17387;42.690;23.328;2024-03-08T12:13:00;3.35;;;2.00;;
29984;SDS011;17387;42.690;23.328;2024-03-08T12:15:28;12.23;;;6.13;;
29984;SDS011;17387;42.690;23.328;2024-03-08T12:17:54;16.33;;;8.50;;
29984;SDS011;17387;42.690;23.328;2024-03-08T12:20:24;8.00;;;4.47;;
29984;SDS011;17387;42.690;23.328;2024-03-08T12:22:58;6.10;;;3.47;;
29984;SDS011;17387;42.690;23.328;2024-03-08T12:28:15;3.45;;;2.40;;
29984;SDS011;17387;42.690;23.328;2024-03-08T12:30:50;5.32;;;2.47;;
29984;SDS011;17387;42.690;23.328;2024-03-08T12:33:21;3.92;;;2.40;;
29984;SDS011;17387;42.690;23.328;2024-03-08T12:36:14;4.13;;;3.03;;
29984;SDS011;17387;42.690;23.328;2024-03-08T12:38:46;5.78;;;3.50;;
29984;SDS011;17387;42.690;23.328;2024-03-08T12:41:19;3.53;;;2.35;;
29984;SDS011;17387;42.690;23.328;2024-03-08T12:49:49;6.47;;;1.95;;
29984;SDS011;17387;42.690;23.328;2024-03-08T12:52:15;7.50;;;4.03;;
29984;SDS011;17387;42.690;23.328;2024-03-08T12:54:43;3.70;;;2.40;;
29984;SDS011;17387;42.690;23.328;2024-03-08T12:57:09;3.47;;;2.45;;
29984;SDS011;17387;42.690;23.328;2024-03-08T12:59:34;3.03;;;2.25;;
29984;SDS011;17387;42.690;23.328;2024-03-08T13:02:02;4.32;;;2.20;;
29984;SDS011;17387;42.690;23.328;2024-03-08T13:04:36;2.97;;;1.95;;
29984;SDS011;17387;42.690;23.328;2024-03-08T13:13:15;3.05;;;1.70;;
29984;SDS011;17387;42.690;23.328;2024-03-08T13:15:42;4.10;;;2.38;;
29984;SDS011;17387;42.690;23.328;2024-03-08T13:18:18;5.03;;;1.98;;
29984;SDS011;17387;42.690;23.328;2024-03-08T13:20:43;15.63;;;8.15;;
29984;SDS011;17387;42.690;23.328;2024-03-08T13:23:15;2.40;;;1.92;;
29984;SDS011;17387;42.690;23.328;2024-03-08T13:25:42;4.32;;;2.83;;
29984;SDS011;17387;42.690;23.328;2024-03-08T13:28:10;3.63;;;2.17;;
29984;SDS011;17387;42.690;23.328;2024-03-08T13:30:36;14.20;;;7.07;;
29984;SDS011;17387;42.690;23.328;2024-03-08T13:33:04;8.88;;;4.50;;
29984;SDS011;17387;42.690;23.328;2024-03-08T13:35:33;3.83;;;2.85;;
29984;SDS011;17387;42.690;23.328;2024-03-08T13:37:59;3.00;;;2.38;;
29984;SDS011;17387;42.690;23.328;2024-03-08T13:40:28;3.90;;;1.60;;
29984;SDS011;17387;42.690;23.328;2024-03-08T13:42:56;2.38;;;1.98;;
29984;SDS011;17387;42.690;23.328;2024-03-08T13:45:22;2.35;;;2.00;;
29984;SDS011;17387;42.690;23.328;2024-03-08T13:47:50;10.88;;;6.72;;
29984;SDS011;17387;42.690;23.328;2024-03-08T13:50:19;3.15;;;1.90;;
29984;SDS011;17387;42.690;23.328;2024-03-08T13:52:47;20.52;;;7.40;;
29984;SDS011;17387;42.690;23.328;2024-03-08T13:55:16;5.43;;;2.83;;
29984;SDS011;17387;42.690;23.328;2024-03-08T13:57:45;5.88;;;2.80;;
29984;SDS011;17387;42.690;23.328;2024-03-08T14:00:11;4.70;;;2.70;;
29984;SDS011;17387;42.690;23.328;2024-03-08T14:05:58;2.72;;;2.00;;
29984;SDS011;17387;42.690;23.328;2024-03-08T14:08:28;2.47;;;1.75;;
29984;SDS011;17387;42.690;23.328;2024-03-08T14:10:56;2.88;;;2.35;;
29984;SDS011;17387;42.690;23.328;2024-03-08T14:13:26;4.47;;;2.90;;
29984;SDS011;17387;42.690;23.328;2024-03-08T14:15:51;4.05;;;2.30;;
29984;SDS011;17387;42.690;23.328;2024-03-08T14:18:23;24.10;;;9.80;;
29984;SDS011;17387;42.690;23.328;2024-03-08T14:20:48;10.23;;;4.90;;
29984;SDS011;17387;42.690;23.328;2024-03-08T14:23:18;4.82;;;2.50;;
29984;SDS011;17387;42.690;23.328;2024-03-08T14:25:45;7.47;;;2.40;;
29984;SDS011;17387;42.690;23.328;2024-03-08T14:28:20;3.72;;;2.75;;
29984;SDS011;17387;42.690;23.328;2024-03-08T14:30:47;4.95;;;3.00;;
29984;SDS011;17387;42.690;23.328;2024-03-08T14:33:17;4.43;;;3.13;;
29984;SDS011;17387;42.690;23.328;2024-03-08T14:35:45;7.75;;;3.30;;
29984;SDS011;17387;42.690;23.328;2024-03-08T14:38:14;7.30;;;3.35;;
29984;SDS011;17387;42.690;23.328;2024-03-08T14:40:55;3.70;;;2.83;;
29984;SDS011;17387;42.690;23.328;2024-03-08T14:43:28;11.25;;;5.45;;
29984;SDS011;17387;42.690;23.328;2024-03-08T14:45:53;3.58;;;2.50;;
29984;SDS011;17387;42.690;23.328;2024-03-08T14:48:19;11.50;;;5.38;;
29984;SDS011;17387;42.690;23.328;2024-03-08T14:50:50;5.00;;;3.47;;
29984;SDS011;17387;42.690;23.328;2024-03-08T14:53:21;5.35;;;3.83;;
29984;SDS011;17387;42.690;23.328;2024-03-08T14:55:46;9.95;;;5.05;;
29984;SDS011;17387;42.690;23.328;2024-03-08T15:11:01;5.10;;;3.58;;
29984;SDS011;17387;42.690;23.328;2024-03-08T15:13:26;6.15;;;3.63;;
29984;SDS011;17387;42.690;23.328;2024-03-08T15:16:15;5.85;;;4.05;;
29984;SDS011;17387;42.690;23.328;2024-03-08T15:18:50;5.50;;;3.67;;
29984;SDS011;17387;42.690;23.328;2024-03-08T15:21:19;10.10;;;4.82;;
29984;SDS011;17387;42.690;23.328;2024-03-08T15:23:47;7.68;;;4.28;;
29984;SDS011;17387;42.690;23.328;2024-03-08T15:26:17;6.97;;;4.18;;
29984;SDS011;17387;42.690;23.328;2024-03-08T15:28:43;7.93;;;4.50;;
29984;SDS011;17387;42.690;23.328;2024-03-08T15:31:14;7.38;;;4.25;;
29984;SDS011;17387;42.690;23.328;2024-03-08T15:33:46;7.97;;;4.97;;
29984;SDS011;17387;42.690;23.328;2024-03-08T15:36:16;7.82;;;4.97;;
29984;SDS011;17387;42.690;23.328;2024-03-08T15:39:07;8.23;;;4.70;;
29984;SDS011;17387;42.690;23.328;2024-03-08T15:41:42;7.72;;;4.80;;
29984;SDS011;17387;42.690;23.328;2024-03-08T15:44:09;16.08;;;10.40;;
29984;SDS011;17387;42.690;23.328;2024-03-08T15:46:37;7.07;;;4.10;;
29984;SDS011;17387;42.690;23.328;2024-03-08T15:49:04;7.95;;;4.50;;
29984;SDS011;17387;42.690;23.328;2024-03-08T15:54:45;8.60;;;5.43;;
29984;SDS011;17387;42.690;23.328;2024-03-08T15:57:19;8.05;;;5.28;;
29984;SDS011;17387;42.690;23.328;2024-03-08T15:59:48;12.07;;;6.35;;
29984;SDS011;17387;42.690;23.328;2024-03-08T16:02:16;10.20;;;5.60;;